createdAt,value
2023-04-11T00:00:20.073Z,100632.25
2023-04-11T00:02:49.689Z,100624.81
2023-04-11T00:05:18.018Z,100627.63
2023-04-11T00:07:46.418Z,100630.53
2023-04-11T00:10:15.474Z,100622.97
2023-04-11T00:12:44.758Z,100637.16
2023-04-11T00:15:13.750Z,100624.69
2023-04-11T00:17:46.085Z,100627.72
2023-04-11T00:20:15.297Z,100620.28
2023-04-11T00:22:47.710Z,100629.34
2023-04-11T00:25:16.214Z,100625.25
2023-04-11T00:27:44.555Z,100625.50
2023-04-11T00:30:15.883Z,100634.50
2023-04-11T00:32:48.025Z,100624.00
2023-04-11T00:35:17.380Z,100633.00
2023-04-11T00:37:46.910Z,100642.47
2023-04-11T00:40:18.164Z,100638.81
2023-04-11T00:42:46.420Z,100626.00
2023-04-11T00:45:18.168Z,100627.72
2023-04-11T00:47:46.701Z,100639.22
2023-04-11T00:50:22.390Z,100638.78
2023-04-11T00:52:52.114Z,100634.88
2023-04-11T00:55:20.956Z,100635.66
2023-04-11T00:57:55.195Z,100645.31
2023-04-11T01:00:24.015Z,100631.22
2023-04-11T01:02:53.920Z,100631.22
2023-04-11T01:05:23.293Z,100635.41
2023-04-11T01:07:55.974Z,100625.41
2023-04-11T01:10:25.679Z,100633.53
2023-04-11T01:12:54.399Z,100622.22
2023-04-11T01:15:23.110Z,100633.06
2023-04-11T01:17:55.803Z,100619.63
2023-04-11T01:20:24.501Z,100608.50
2023-04-11T01:22:53.136Z,100616.50
2023-04-11T01:25:22.640Z,100610.78
2023-04-11T01:27:50.997Z,100621.06
2023-04-11T01:30:19.892Z,100624.25
2023-04-11T01:32:51.595Z,100613.63
2023-04-11T01:35:20.669Z,100626.94
2023-04-11T01:37:49.133Z,100610.59
2023-04-11T01:40:19.432Z,100601.44
2023-04-11T01:42:48.422Z,100596.50
2023-04-11T01:45:16.740Z,100602.31
2023-04-11T01:47:45.757Z,100602.94
2023-04-11T01:50:14.391Z,100610.16
2023-04-11T01:52:43.128Z,100605.00
2023-04-11T01:55:19.981Z,100606.69
2023-04-11T01:57:48.751Z,100605.38
2023-04-11T02:00:17.775Z,100609.53
2023-04-11T02:02:46.975Z,100603.81
2023-04-11T02:05:15.850Z,100598.19
2023-04-11T02:07:51.415Z,100601.03
2023-04-11T02:10:19.456Z,100596.44
2023-04-11T02:12:47.686Z,100604.13
2023-04-11T02:15:19.847Z,100607.72
2023-04-11T02:17:54.949Z,100593.19
2023-04-11T02:20:23.515Z,100605.63
2023-04-11T02:22:54.484Z,100592.56
2023-04-11T02:25:22.949Z,100603.22
2023-04-11T02:27:51.333Z,100591.56
2023-04-11T02:30:20.414Z,100589.78
2023-04-11T02:32:59.512Z,100600.91
2023-04-11T02:35:27.834Z,100592.09
2023-04-11T02:37:56.333Z,100592.75
2023-04-11T02:40:26.021Z,100603.66
2023-04-11T02:42:54.573Z,100599.69
2023-04-11T02:45:23.032Z,100588.03
2023-04-11T02:47:51.236Z,100590.28
2023-04-11T02:50:23.930Z,100593.03
2023-04-11T02:52:53.065Z,100592.47
2023-04-11T02:55:25.197Z,100583.63
2023-04-11T02:57:53.496Z,100584.75
2023-04-11T03:00:22.483Z,100581.63
2023-04-11T03:03:12.688Z,100575.41
2023-04-11T03:05:41.466Z,100578.44
2023-04-11T03:08:10.381Z,100577.59
2023-04-11T03:10:38.952Z,100568.91
2023-04-11T03:13:07.720Z,100579.09
2023-04-11T03:15:36.460Z,100576.31
2023-04-11T03:18:10.400Z,100575.34
2023-04-11T03:20:38.825Z,100569.81
2023-04-11T03:23:07.160Z,100563.72
2023-04-11T03:25:38.090Z,100570.19
2023-04-11T03:28:12.577Z,100561.88
2023-04-11T03:30:42.898Z,100551.34
2023-04-11T03:33:11.955Z,100556.22
2023-04-11T03:35:40.405Z,100557.72
2023-04-11T03:38:08.820Z,100551.00
2023-04-11T03:40:37.184Z,100559.34
2023-04-11T03:43:07.351Z,100548.94
2023-04-11T03:45:35.718Z,100546.00
2023-04-11T03:48:04.264Z,100550.19
2023-04-11T03:50:38.786Z,100543.81
2023-04-11T03:53:08.241Z,100548.94
2023-04-11T03:55:37.837Z,100543.69
2023-04-11T03:58:08.935Z,100545.13
2023-04-11T04:00:37.321Z,100545.03
2023-04-11T04:03:07.587Z,100540.41
2023-04-11T04:05:37.075Z,100544.69
2023-04-11T04:08:07.121Z,100553.09
2023-04-11T04:10:36.470Z,100549.28
2023-04-11T04:13:04.794Z,100552.31
2023-04-11T04:15:34.688Z,100549.72
2023-04-11T04:18:04.471Z,100541.13
2023-04-11T04:20:36.068Z,100538.53
2023-04-11T04:23:08.644Z,100550.56
2023-04-11T04:25:37.233Z,100550.56
2023-04-11T04:28:07.225Z,100546.38
2023-04-11T04:30:40.366Z,100544.44
2023-04-11T04:33:12.708Z,100556.41
2023-04-11T04:35:44.741Z,100560.41
2023-04-11T04:38:18.357Z,100537.78
2023-04-11T04:40:48.006Z,100536.38
2023-04-11T04:43:23.283Z,100545.56
2023-04-11T04:45:53.297Z,100536.66
2023-04-11T04:48:25.835Z,100535.06
2023-04-11T04:50:57.548Z,100538.75
2023-04-11T04:53:30.095Z,100536.69
2023-04-11T04:55:58.840Z,100536.91
2023-04-11T04:58:27.904Z,100530.06
2023-04-11T05:01:02.887Z,100532.16
2023-04-11T05:03:35.029Z,100522.00
2023-04-11T05:06:04.191Z,100529.97
2023-04-11T05:08:35.149Z,100528.13
2023-04-11T05:11:05.380Z,100522.88
2023-04-11T05:13:34.884Z,100515.00
2023-04-11T05:16:05.953Z,100524.34
2023-04-11T05:18:37.585Z,100519.97
2023-04-11T05:21:06.294Z,100518.59
2023-04-11T05:23:34.333Z,100517.00
2023-04-11T05:26:04.197Z,100516.00
2023-04-11T05:28:34.421Z,100513.22
2023-04-11T05:31:03.001Z,100510.63
2023-04-11T05:33:33.485Z,100508.38
2023-04-11T05:36:04.089Z,100509.63
2023-04-11T05:38:38.353Z,100506.94
2023-04-11T05:41:08.421Z,100509.13
2023-04-11T05:43:40.198Z,100510.50
2023-04-11T05:46:12.986Z,100511.06
2023-04-11T05:48:41.919Z,100506.16
2023-04-11T05:51:10.663Z,100508.50
2023-04-11T05:53:44.399Z,100498.81
2023-04-11T05:56:15.115Z,100503.41
2023-04-11T05:58:45.609Z,100489.31
2023-04-11T06:01:18.695Z,100485.47
2023-04-11T06:03:47.305Z,100480.69
2023-04-11T06:06:18.905Z,100477.28
2023-04-11T06:08:52.984Z,100475.50
2023-04-11T06:11:21.101Z,100475.72
2023-04-11T06:13:51.354Z,100486.56
2023-04-11T06:16:20.941Z,100477.97
2023-04-11T06:18:48.928Z,100476.13
2023-04-11T06:21:29.609Z,100480.22
2023-04-11T06:24:08.371Z,100469.22
2023-04-11T06:26:38.173Z,100471.41
2023-04-11T06:29:09.298Z,100465.59
2023-04-11T06:31:37.328Z,100478.16
2023-04-11T06:34:08.183Z,100465.34
2023-04-11T06:36:37.605Z,100468.84
2023-04-11T06:39:06.132Z,100465.28
2023-04-11T06:41:36.764Z,100450.00
2023-04-11T06:44:04.956Z,100448.53
2023-04-11T06:46:33.738Z,100456.63
2023-04-11T06:49:07.524Z,100444.44
2023-04-11T06:51:40.108Z,100449.56
2023-04-11T06:54:10.643Z,100449.50
2023-04-11T06:56:39.535Z,100440.59
2023-04-11T06:59:09.147Z,100432.44
2023-04-11T07:01:39.809Z,100430.41
2023-04-11T07:04:08.312Z,100426.91
2023-04-11T07:06:41.107Z,100424.16
2023-04-11T07:09:09.999Z,100427.94
2023-04-11T07:11:38.935Z,100422.09
2023-04-11T07:14:10.176Z,100432.53
2023-04-11T07:16:42.561Z,100420.09
2023-04-11T07:19:10.845Z,100434.66
2023-04-11T07:21:38.987Z,100414.91
2023-04-11T07:24:07.478Z,100434.75
2023-04-11T07:26:39.034Z,100419.22
2023-04-11T07:29:11.583Z,100433.47
2023-04-11T07:31:44.505Z,100423.19
2023-04-11T07:34:13.627Z,100416.59
2023-04-11T07:36:48.885Z,100417.81
2023-04-11T07:39:19.551Z,100403.16
2023-04-11T07:41:49.440Z,100410.34
2023-04-11T07:44:17.976Z,100403.47
2023-04-11T07:46:46.800Z,100386.25
2023-04-11T07:49:14.810Z,100399.09
2023-04-11T07:51:45.610Z,100386.91
2023-04-11T07:54:14.299Z,100395.75
2023-04-11T07:56:42.724Z,100418.56
2023-04-11T07:59:16.323Z,100378.50
2023-04-11T08:01:47.210Z,100371.69
2023-04-11T08:04:15.743Z,100381.56
2023-04-11T08:06:53.404Z,100365.19
2023-04-11T08:09:30.347Z,100350.97
2023-04-11T08:12:03.946Z,100355.97
2023-04-11T08:14:36.966Z,100349.50
2023-04-11T08:17:14.613Z,100338.25
2023-04-11T08:19:49.409Z,100353.19
2023-04-11T08:22:20.281Z,100345.63
2023-04-11T08:24:48.398Z,100335.13
2023-04-11T08:27:22.466Z,100328.34
2023-04-11T08:29:51.060Z,100325.28
2023-04-11T08:32:19.707Z,100345.88
2023-04-11T08:34:48.164Z,100336.34
2023-04-11T08:37:16.693Z,100330.53
2023-04-11T08:39:45.809Z,100338.69
2023-04-11T08:42:30.463Z,100325.75
2023-04-11T08:45:04.347Z,100306.19
2023-04-11T08:47:44.858Z,100302.44
2023-04-11T08:50:18.519Z,100341.75
2023-04-11T08:52:50.121Z,100315.75
2023-04-11T08:55:18.358Z,100295.03
2023-04-11T08:57:48.252Z,100287.09
2023-04-11T09:00:24.493Z,100264.00
2023-04-11T09:03:05.089Z,100294.00
2023-04-11T09:05:43.230Z,100285.03
2023-04-11T09:08:15.697Z,100303.88
2023-04-11T09:10:46.726Z,100269.44
2023-04-11T09:13:26.590Z,100260.75
2023-04-11T09:16:05.670Z,100252.16
2023-04-11T09:18:39.457Z,100264.84
2023-04-11T09:21:10.296Z,100253.81
2023-04-11T09:23:39.317Z,100251.03
2023-04-11T09:26:11.400Z,100277.09
2023-04-11T09:28:45.741Z,100251.41
2023-04-11T09:31:14.012Z,100250.06
2023-04-11T09:33:54.259Z,100240.41
2023-04-11T09:36:24.176Z,100231.19
2023-04-11T09:39:10.351Z,100239.44
2023-04-11T09:41:45.540Z,100214.97
2023-04-11T09:44:17.552Z,100209.47
2023-04-11T09:47:01.743Z,100236.88
2023-04-11T09:49:37.277Z,100205.94
2023-04-11T09:52:06.238Z,100228.59
2023-04-11T09:54:35.391Z,100222.56
2023-04-11T09:57:03.870Z,100199.06
2023-04-11T09:59:36.524Z,100199.88
2023-04-11T10:02:07.702Z,100179.50
2023-04-11T10:04:36.657Z,100198.31
2023-04-11T10:07:14.810Z,100181.47
2023-04-11T10:09:44.072Z,100175.41
2023-04-11T10:12:15.299Z,100173.47
2023-04-11T10:14:46.427Z,100186.47
2023-04-11T10:17:22.915Z,100169.53
2023-04-11T10:19:59.352Z,100158.94
2023-04-11T10:23:00.356Z,100155.19
2023-04-11T10:25:29.326Z,100134.75
2023-04-11T10:28:04.165Z,100135.63
2023-04-11T10:31:13.629Z,100151.47
2023-04-11T10:34:11.774Z,100163.75
2023-04-11T10:37:04.360Z,100154.78
2023-04-11T10:40:23.798Z,100146.53
2023-04-11T10:42:52.165Z,100133.88
2023-04-11T10:45:24.744Z,100132.50
2023-04-11T10:47:52.889Z,100140.78
2023-04-11T10:50:24.399Z,100136.88
2023-04-11T10:52:58.089Z,100126.25
2023-04-11T10:55:29.195Z,100135.00
2023-04-11T10:58:11.818Z,100120.34
2023-04-11T11:00:50.300Z,100120.22
2023-04-11T11:03:31.958Z,100158.53
2023-04-11T11:06:06.952Z,100106.13
2023-04-11T11:08:44.960Z,100138.91
2023-04-11T11:11:18.596Z,100120.47
2023-04-11T11:13:53.942Z,100112.25
2023-04-11T11:16:23.845Z,100136.13
2023-04-11T11:18:55.723Z,100101.59
2023-04-11T11:21:28.332Z,100114.81
2023-04-11T11:24:02.823Z,100111.63
2023-04-11T11:26:39.594Z,100113.25
2023-04-11T11:29:11.077Z,100103.38
2023-04-11T11:31:46.015Z,100118.22
2023-04-11T11:34:23.690Z,100118.41
2023-04-11T11:36:55.563Z,100099.13
2023-04-11T11:39:24.115Z,100113.97
2023-04-11T11:41:58.768Z,100109.78
2023-04-11T11:44:31.651Z,100117.59
2023-04-11T11:47:13.030Z,100120.00
2023-04-11T11:49:52.440Z,100110.31
2023-04-11T11:52:41.014Z,100085.94
2023-04-11T11:55:31.719Z,100099.41
2023-04-11T11:58:06.523Z,100088.59
2023-04-11T12:00:38.987Z,100080.75
2023-04-11T12:03:10.179Z,100080.13
2023-04-11T12:05:38.887Z,100080.47
2023-04-11T12:08:07.802Z,100073.09
2023-04-11T12:10:48.287Z,100064.69
2023-04-11T12:13:21.012Z,100065.38
2023-04-11T12:15:55.157Z,100055.34
2023-04-11T12:18:27.948Z,100036.41
2023-04-11T12:20:56.369Z,100050.88
2023-04-11T12:23:31.686Z,100039.81
2023-04-11T12:26:03.337Z,100028.28
2023-04-11T12:28:31.526Z,100052.78
2023-04-11T12:30:59.720Z,100036.06
2023-04-11T12:33:31.743Z,100009.78
2023-04-11T12:36:03.908Z,100022.06
2023-04-11T12:38:35.232Z,100010.13
2023-04-11T12:41:14.285Z,100013.69
2023-04-11T12:44:00.351Z,100008.81
2023-04-11T12:46:39.847Z,99997.44
2023-04-11T12:49:09.329Z,100014.97
2023-04-11T12:51:46.045Z,100009.34
2023-04-11T12:54:14.506Z,100032.06
2023-04-11T12:56:48.353Z,99990.91
2023-04-11T12:59:18.509Z,99991.72
2023-04-11T13:01:47.988Z,99988.84
2023-04-11T13:04:16.718Z,99991.06
2023-04-11T13:06:47.978Z,100000.78
2023-04-11T13:09:16.396Z,99991.19
2023-04-11T13:11:44.759Z,99991.72
2023-04-11T13:14:15.860Z,100010.25
2023-04-11T13:16:46.329Z,99987.44
2023-04-11T13:19:18.109Z,99979.13
2023-04-11T13:21:47.096Z,99997.13
2023-04-11T13:24:15.613Z,99970.94
2023-04-11T13:26:46.112Z,100004.97
2023-04-11T13:29:16.249Z,99986.59
2023-04-11T13:31:51.893Z,99978.81
2023-04-11T13:34:24.336Z,99981.72
2023-04-11T13:36:56.281Z,99974.25
2023-04-11T13:39:27.143Z,99971.03
2023-04-11T13:41:57.556Z,99960.19
2023-04-11T13:44:25.810Z,99957.59
2023-04-11T13:46:53.917Z,99969.13
2023-04-11T13:49:22.118Z,99988.00
2023-04-11T13:51:58.824Z,99961.19
2023-04-11T13:54:28.763Z,99968.50
2023-04-11T13:56:58.284Z,99942.69
2023-04-11T13:59:27.770Z,99939.94
2023-04-11T14:01:56.080Z,99958.78
2023-04-11T14:04:26.956Z,99939.25
2023-04-11T14:06:55.891Z,99939.59
2023-04-11T14:09:26.589Z,99953.72
2023-04-11T14:11:58.206Z,99931.28
2023-04-11T14:14:26.563Z,99931.28
2023-04-11T14:16:55.660Z,99926.19
2023-04-11T14:19:25.474Z,99942.34
2023-04-11T14:21:55.284Z,99934.38
2023-04-11T14:24:23.676Z,99929.97
2023-04-11T14:26:54.059Z,99917.44
2023-04-11T14:29:23.143Z,99932.72
2023-04-11T14:31:51.685Z,99922.19
2023-04-11T14:34:19.844Z,99918.94
2023-04-11T14:36:48.826Z,99912.66
2023-04-11T14:39:22.189Z,99910.78
2023-04-11T14:41:57.320Z,99920.31
2023-04-11T14:44:27.020Z,99910.66
2023-04-11T14:46:56.858Z,99938.81
2023-04-11T14:49:28.224Z,99911.00
2023-04-11T14:52:05.896Z,99902.31
2023-04-11T14:54:34.944Z,99893.63
2023-04-11T14:57:04.178Z,99916.09
2023-04-11T14:59:37.916Z,99905.56
2023-04-11T15:02:09.506Z,99897.06
2023-04-11T15:04:37.979Z,99901.31
2023-04-11T15:07:08.430Z,99906.72
2023-04-11T15:09:36.483Z,99905.88
2023-04-11T15:12:04.779Z,99917.78
2023-04-11T15:14:39.440Z,99909.81
2023-04-11T15:17:07.872Z,99903.69
2023-04-11T15:19:36.748Z,99905.09
2023-04-11T15:22:06.172Z,99909.31
2023-04-11T15:24:36.738Z,99906.94
2023-04-11T15:27:07.889Z,99901.34
2023-04-11T15:29:37.045Z,99910.50
2023-04-11T15:32:05.413Z,99917.16
2023-04-11T15:34:35.737Z,99905.78
2023-04-11T15:37:03.832Z,99899.50
2023-04-11T15:39:32.209Z,99917.31
2023-04-11T15:42:00.620Z,99914.28
2023-04-11T15:44:32.310Z,99911.38
2023-04-11T15:47:15.073Z,99909.69
2023-04-11T15:49:50.551Z,99905.47
2023-04-11T15:52:21.842Z,99897.97
2023-04-11T15:54:52.155Z,99911.38
2023-04-11T15:57:23.698Z,99895.97
2023-04-11T15:59:54.140Z,99896.81
2023-04-11T16:02:24.466Z,99887.31
2023-04-11T16:04:56.183Z,99882.72
2023-04-11T16:07:24.916Z,99887.31
2023-04-11T16:09:53.218Z,99878.31
2023-04-11T16:12:38.245Z,99880.84
2023-04-11T16:15:31.456Z,99888.50
2023-04-11T16:17:59.787Z,99877.59
2023-04-11T16:20:28.620Z,99889.50
2023-04-11T16:22:57.373Z,99872.69
2023-04-11T16:25:26.638Z,99876.59
2023-04-11T16:27:58.596Z,99874.22
2023-04-11T16:30:28.943Z,99880.16
2023-04-11T16:32:57.587Z,99873.38
2023-04-11T16:35:28.646Z,99882.53
2023-04-11T16:37:56.702Z,99870.81
2023-04-11T16:40:25.018Z,99869.47
2023-04-11T16:42:54.043Z,99874.22
2023-04-11T16:45:25.806Z,99873.06
2023-04-11T16:47:55.164Z,99871.31
2023-04-11T16:50:25.287Z,99864.41
2023-04-11T16:52:57.370Z,99867.25
2023-04-11T16:55:25.979Z,99867.44
2023-04-11T16:57:54.419Z,99861.50
2023-04-11T17:00:23.064Z,99866.41
2023-04-11T17:02:58.776Z,99867.78
2023-04-11T17:05:27.269Z,99865.91
2023-04-11T17:07:56.239Z,99862.84
2023-04-11T17:10:25.216Z,99863.19
2023-04-11T17:13:05.250Z,99872.19
2023-04-11T17:15:37.552Z,99871.69
2023-04-11T17:18:06.327Z,99880.66
2023-04-11T17:20:36.503Z,99876.75
2023-04-11T17:23:08.047Z,99878.09
2023-04-11T17:25:39.068Z,99875.25
2023-04-11T17:28:10.096Z,99888.28
2023-04-11T17:30:43.291Z,99890.31
2023-04-11T17:33:11.990Z,99889.31
2023-04-11T17:35:41.783Z,99895.25
2023-04-11T17:38:16.229Z,99899.47
2023-04-11T17:40:45.917Z,99897.78
2023-04-11T17:43:15.583Z,99886.75
2023-04-11T17:45:44.437Z,99899.47
2023-04-11T17:48:15.951Z,99895.38
2023-04-11T17:50:46.659Z,99896.59
2023-04-11T17:53:20.868Z,99890.31
2023-04-11T17:55:53.593Z,99889.44
2023-04-11T17:58:22.919Z,99892.31
2023-04-11T18:00:56.567Z,99884.88
2023-04-11T18:03:27.357Z,99888.56
2023-04-11T18:05:55.835Z,99884.19
2023-04-11T18:08:46.874Z,99900.31
2023-04-11T18:11:16.704Z,99881.63
2023-04-11T18:13:45.970Z,99885.84
2023-04-11T18:16:16.700Z,99884.34
2023-04-11T18:18:46.326Z,99878.09
2023-04-11T18:21:20.357Z,99875.69
2023-04-11T18:23:52.491Z,99865.00
2023-04-11T18:26:23.931Z,99870.56
2023-04-11T18:28:54.617Z,99865.84
2023-04-11T18:31:25.310Z,99872.44
2023-04-11T18:33:56.121Z,99862.78
2023-04-11T18:36:30.134Z,99866.34
2023-04-11T18:39:01.034Z,99867.34
2023-04-11T18:41:31.628Z,99855.13
2023-04-11T18:44:04.455Z,99861.91
2023-04-11T18:46:35.518Z,99853.28
2023-04-11T18:49:05.653Z,99852.91
2023-04-11T18:51:35.866Z,99853.63
2023-04-11T18:54:09.965Z,99858.34
2023-04-11T18:56:43.696Z,99859.53
2023-04-11T19:02:00.260Z,99856.09
2023-04-11T19:04:30.173Z,99853.69
2023-04-11T19:06:59.517Z,99852.69
2023-04-11T19:09:28.850Z,99857.66
2023-04-11T19:11:57.415Z,99846.75
2023-04-11T19:14:27.852Z,99846.56
2023-04-11T19:16:56.945Z,99850.63
2023-04-11T19:19:26.100Z,99849.88
2023-04-11T19:21:54.141Z,99847.00
2023-04-11T19:24:25.986Z,99842.13
2023-04-11T19:26:54.492Z,99853.13
2023-04-11T19:29:27.370Z,99848.47
2023-04-11T19:31:55.601Z,99843.97
2023-04-11T19:34:26.024Z,99841.22
2023-04-11T19:36:54.118Z,99849.75
2023-04-11T19:39:22.488Z,99840.47
2023-04-11T19:41:52.829Z,99844.03
2023-04-11T19:44:22.285Z,99836.22
2023-04-11T19:46:53.916Z,99824.34
2023-04-11T19:49:22.337Z,99825.75
2023-04-11T19:51:51.333Z,99827.75
2023-04-11T19:54:19.572Z,99821.97
2023-04-11T19:56:49.675Z,99817.13
2023-04-11T19:59:18.060Z,99812.75
2023-04-11T20:01:47.385Z,99814.31
2023-04-11T20:04:17.870Z,99815.59
2023-04-11T20:06:51.345Z,99817.56
2023-04-11T20:09:19.831Z,99815.28
2023-04-11T20:11:51.183Z,99813.16
2023-04-11T20:14:22.390Z,99812.03
2023-04-11T20:16:56.700Z,99810.00
2023-04-11T20:19:29.046Z,99801.94
2023-04-11T20:21:57.671Z,99813.16
2023-04-11T20:24:31.858Z,99803.50
2023-04-11T20:27:13.168Z,99810.00
2023-04-11T20:29:46.807Z,99808.47
2023-04-11T20:32:17.885Z,99805.63
2023-04-11T20:34:59.017Z,99801.94
2023-04-11T20:37:47.914Z,99800.50
2023-04-11T20:40:17.771Z,99790.88
2023-04-11T20:42:48.114Z,99787.63
2023-04-11T20:45:21.025Z,99793.03
2023-04-11T20:47:50.746Z,99783.38
2023-04-11T20:50:22.525Z,99787.63
2023-04-11T20:52:51.714Z,99783.25
2023-04-11T20:55:21.250Z,99779.97
2023-04-11T20:57:50.209Z,99773.47
2023-04-11T21:00:20.351Z,99780.25
2023-04-11T21:02:51.193Z,99765.94
2023-04-11T21:05:25.309Z,99769.19
2023-04-11T21:08:26.915Z,99763.22
2023-04-11T21:10:55.320Z,99763.22
2023-04-11T21:13:25.369Z,99769.59
2023-04-11T21:15:55.883Z,99757.25
2023-04-11T21:18:25.150Z,99753.72
2023-04-11T21:20:55.818Z,99757.56
2023-04-11T21:23:23.927Z,99756.72
2023-04-11T21:25:52.614Z,99751.63
2023-04-11T21:28:23.001Z,99746.22
2023-04-11T21:31:11.462Z,99752.47
2023-04-11T21:33:45.450Z,99753.75
2023-04-11T21:36:13.989Z,99740.97
2023-04-11T21:38:44.951Z,99746.66
2023-04-11T21:41:14.979Z,99743.56
2023-04-11T21:43:43.753Z,99726.94
2023-04-11T21:46:20.435Z,99726.69
2023-04-11T21:48:50.931Z,99730.50
2023-04-11T21:51:20.020Z,99722.59
2023-04-11T21:53:48.047Z,99724.00
2023-04-11T21:56:18.576Z,99718.19
2023-04-11T21:58:59.863Z,99718.19
2023-04-11T22:01:32.072Z,99718.47
2023-04-11T22:04:01.280Z,99715.78
2023-04-11T22:06:30.902Z,99719.19
2023-04-11T22:09:01.695Z,99712.81
2023-04-11T22:11:30.549Z,99714.25
2023-04-11T22:14:02.642Z,99711.81
2023-04-11T22:16:32.788Z,99711.81
2023-04-11T22:19:04.679Z,99701.63
2023-04-11T22:21:39.757Z,99704.34
2023-04-11T22:24:09.930Z,99700.78
2023-04-11T22:26:43.185Z,99695.69
2023-04-11T22:29:12.641Z,99688.00
2023-04-11T22:31:42.945Z,99692.41
2023-04-11T22:34:12.636Z,99691.72
2023-04-11T22:36:41.181Z,99694.69
2023-04-11T22:39:12.336Z,99694.69
2023-04-11T22:41:48.050Z,99693.69
2023-04-11T22:44:24.034Z,99683.91
2023-04-11T22:47:06.963Z,99678.69
2023-04-11T22:49:40.918Z,99682.22
2023-04-11T22:52:14.662Z,99685.59
2023-04-11T22:54:43.954Z,99672.44
2023-04-11T22:57:14.659Z,99679.69
2023-04-11T22:59:44.477Z,99678.78
2023-04-11T23:02:13.128Z,99670.84
2023-04-11T23:04:42.513Z,99665.34
2023-04-11T23:07:11.659Z,99667.47
2023-04-11T23:09:40.133Z,99661.34
2023-04-11T23:12:12.751Z,99663.63
2023-04-11T23:14:44.186Z,99662.91
2023-04-11T23:17:13.829Z,99656.97
2023-04-11T23:19:42.837Z,99653.72
2023-04-11T23:22:13.877Z,99646.47
2023-04-11T23:24:42.654Z,99642.09
2023-04-11T23:27:16.048Z,99638.69
2023-04-11T23:29:49.906Z,99633.72
2023-04-11T23:32:19.424Z,99641.25
2023-04-11T23:34:52.632Z,99640.25
2023-04-11T23:37:21.488Z,99643.66
2023-04-11T23:39:49.968Z,99629.19
2023-04-11T23:42:18.178Z,99629.31
2023-04-11T23:44:47.914Z,99629.31
2023-04-11T23:47:21.391Z,99633.41
2023-04-11T23:49:50.242Z,99618.97
2023-04-11T23:52:18.468Z,99614.44
2023-04-11T23:54:50.329Z,99619.94
2023-04-11T23:57:19.688Z,99627.06
2023-04-11T23:59:48.000Z,99623.25
